McGrath, AK

9:27 AM AKST on March 06, 2015 (GMT -0900)
Nikolai AP, Nikolai, AK | Change Station
CLOSE
Current Station
Airport
Location: Nikolai AP, Nikolai, AK,
Elevation: 413 ft
Nearby Weather Stations

Elev 413 ft 63.02 °N, 154.36 °W | Updated 31 minutes ago

Overcast
Overcast
27 °F
Feels Like 27 °F
N
0
Wind Variable Wind from North

Today
High -- | Low -- °F
--% Chance of Precip.
Yesterday
High -- | Low -- °F
Precip. -- in
8:07 AM 6:55 PM
Full, 99% visible
Pressure 30.10 in
Visibility 10.0 miles
Clouds Overcast 2800 ft
Dew Point 22 °F
Humidity 81%
Rainfall 0.00 in
Snow Depth Not available.
UV 0 out of 12
Pollen Not available.
Air Quality Not available.
Flu Activity Not available.
METAR PAFS 061756Z AUTO 00000KT 10SM OVC028 M03/M06 A3006 RMK AO2 TSNO 58018 T10271055 11027 21038 SLP192 $

More Conditions Fewer Conditions

Pressure 30.10 in
Visibility 10.0 miles
Clouds Overcast 2800 ft
Dew Point 22 °F
Humidity 81%
Rainfall 0.00 in
Snow Depth Not available.
UV 0 out of 12
Pollen Not available.
Air Quality Not available.
Flu Activity Not available.
METAR PAFS 061756Z AUTO 00000KT 10SM OVC028 M03/M06 A3006 RMK AO2 TSNO 58018 T10271055 11027 21038 SLP192 $

More Conditions Fewer Conditions

10-Day Weather Forecast

Almanac

Astronomy

Mar. 06, 2015 Rise Set
Actual Time
Civil Twilight
Nautical Twilight
Astronomical Twilight
Moon
Length of Visible Light
Length of Day
Tomorrow will be .
, % of the Moon is Illuminated

Today's Extremes

State Highs State Lows

Community

WunderPhotos

Upload Photos

1,803,359 photos uploaded!

WunderBlogs® & News

Nearby

Air Quality

  Air Quality AQ Index Pollutant
Not available.

Snow Depth

Station Depth Elevation

Earthquake Activity

City Distance Mag. Time & Date
Minimum magnitude displayed is 2.5.

Coastal Water Temperatures

Place Temperature

Nearby Weather Stations